Time;durP1;ratioP1;P1;durP2;ratioP2;P2;SDS_P1;SDS_P2;PMS_P1;PMS_P2;Temp;Humidity;BMP_temperature;BMP_pressure;BME280_temperature;BME280_humidity;BME280_pressure;Samples;Min_cycle;Max_cycle;Signal;HPM_P1;HPM_P2
2022/08/23 00:00:41;;;;;;;4.78;2.53;;;;;;;19.86;79.20;100613.81;6212247;28;20045;-87
2022/08/23 00:03:43;;;;;;;3.08;2.20;;;;;;;19.83;79.54;100617.63;6210260;28;20042;-87
2022/08/23 00:06:46;;;;;;;3.97;1.95;;;;;;;19.82;80.62;100612.53;6210532;28;20522;-87
2022/08/23 00:09:48;;;;;;;3.78;2.30;;;;;;;19.77;79.61;100611.25;6214616;28;20037;-87
2022/08/23 00:12:50;;;;;;;3.92;2.50;;;;;;;19.72;79.84;100607.53;6197151;28;20046;-87
2022/08/23 00:15:52;;;;;;;5.28;2.40;;;;;;;19.69;82.12;100608.69;6206956;28;20103;-87
2022/08/23 00:18:54;;;;;;;5.30;2.50;;;;;;;19.65;82.20;100611.81;6206932;28;20042;-87
2022/08/23 00:21:56;;;;;;;5.82;2.60;;;;;;;19.60;83.27;100609.72;6201514;28;20169;-87
2022/08/23 00:24:57;;;;;;;3.28;2.40;;;;;;;19.56;83.91;100609.28;6205815;28;20049;-87
2022/08/23 00:27:59;;;;;;;3.17;2.30;;;;;;;19.54;85.57;100611.25;6195122;28;20053;-87
2022/08/23 00:31:02;;;;;;;3.55;2.53;;;;;;;19.52;86.37;100610.63;6202833;28;20121;-87
2022/08/23 00:34:04;;;;;;;7.82;2.72;;;;;;;19.49;87.12;100610.19;6214107;28;20042;-87
2022/08/23 00:37:07;;;;;;;3.60;2.17;;;;;;;19.45;86.29;100612.34;6212421;28;20075;-87
2022/08/23 00:40:12;;;;;;;3.95;2.42;;;;;;;19.42;87.12;100612.69;6203079;28;20052;-87
2022/08/23 00:50:41;;;;;;;4.00;2.35;;;;;;;19.24;86.31;100609.56;6204414;28;20054;-87
2022/08/23 00:53:47;;;;;;;6.53;2.60;;;;;;;19.15;87.08;100612.25;6197087;28;20049;-87
2022/08/23 00:56:50;;;;;;;4.07;2.58;;;;;;;19.10;88.39;100609.31;6193525;28;20700;-87
2022/08/23 00:59:52;;;;;;;3.28;2.22;;;;;;;19.07;88.34;100600.97;6203798;28;20045;-87
2022/08/23 01:02:56;;;;;;;5.07;2.60;;;;;;;19.05;88.65;100601.16;6207070;28;20046;-87
2022/08/23 01:06:10;;;;;;;4.68;2.90;;;;;;;19.04;89.31;100599.53;6208549;28;20056;-87
2022/08/23 01:09:15;;;;;;;4.70;2.50;;;;;;;19.04;89.61;100603.97;6204330;28;20062;-87
2022/08/23 01:12:22;;;;;;;4.72;2.20;;;;;;;19.05;91.17;100601.16;6200730;28;20072;-87
2022/08/23 01:15:41;;;;;;;5.30;2.25;;;;;;;19.05;91.03;100606.41;6221844;28;20057;-87
2022/08/23 01:18:45;;;;;;;7.43;3.10;;;;;;;19.06;92.36;100608.03;6220955;28;20522;-87
2022/08/23 01:21:54;;;;;;;3.85;2.60;;;;;;;19.06;91.14;100612.47;6241233;28;20402;-87
2022/08/23 01:24:57;;;;;;;4.75;2.90;;;;;;;19.03;92.19;100613.66;6213374;28;20050;-87
2022/08/23 01:28:13;;;;;;;3.92;2.30;;;;;;;19.00;91.50;100621.84;6204477;28;20068;-87
2022/08/23 01:31:17;;;;;;;3.30;2.53;;;;;;;18.98;92.34;100618.59;6203204;28;20779;-87
2022/08/23 01:34:27;;;;;;;3.22;2.53;;;;;;;18.98;92.81;100620.38;6195596;28;20540;-87
2022/08/23 01:37:28;;;;;;;3.53;2.47;;;;;;;18.95;90.58;100616.31;6202868;28;20053;-87
2022/08/23 01:40:31;;;;;;;3.80;2.28;;;;;;;18.94;91.03;100614.69;6194406;28;20880;-87
2022/08/23 01:43:33;;;;;;;5.35;2.35;;;;;;;18.92;93.58;100612.22;6211616;28;20088;-87
2022/08/23 01:46:35;;;;;;;4.15;2.85;;;;;;;18.90;95.36;100613.38;6204223;28;20128;-87
2022/08/23 01:49:36;;;;;;;4.68;3.10;;;;;;;18.87;93.51;100613.75;6207874;28;20049;-87
2022/08/23 01:52:40;;;;;;;3.75;2.50;;;;;;;18.83;92.87;100623.78;6221606;28;20057;-87
2022/08/23 01:55:50;;;;;;;5.97;2.65;;;;;;;18.79;92.72;100606.75;6220393;28;20525;-87
2022/08/23 01:58:53;;;;;;;4.85;2.58;;;;;;;18.79;94.20;100614.59;6215646;28;20049;-87
2022/08/23 02:01:57;;;;;;;3.63;2.63;;;;;;;18.78;94.07;100617.38;6205310;28;20556;-87
2022/08/23 02:05:00;;;;;;;6.50;2.78;;;;;;;18.76;93.06;100611.50;6218579;28;20049;-87
2022/08/23 02:11:32;;;;;;;3.75;2.70;;;;;;;18.77;90.85;100613.16;6233270;28;20050;-87
2022/08/23 02:14:36;;;;;;;5.75;2.72;;;;;;;18.78;89.39;100618.22;6208034;28;20161;-87
2022/08/23 02:17:43;;;;;;;4.70;2.83;;;;;;;18.82;91.42;100616.06;6216971;28;20057;-87
2022/08/23 02:20:47;;;;;;;5.50;2.63;;;;;;;18.80;93.50;100616.22;6207814;28;20503;-87
2022/08/23 02:23:55;;;;;;;3.42;2.70;;;;;;;18.79;92.79;100619.84;6196074;28;20049;-87
2022/08/23 02:27:01;;;;;;;4.32;2.85;;;;;;;18.78;94.22;100625.25;6200410;28;20058;-86
2022/08/23 02:30:04;;;;;;;4.75;2.58;;;;;;;18.78;92.86;100617.38;6212494;28;20071;-87
2022/08/23 02:33:06;;;;;;;3.28;2.40;;;;;;;18.76;91.54;100627.22;6224301;28;20137;-87
2022/08/23 02:36:09;;;;;;;3.70;2.50;;;;;;;18.75;90.71;100612.47;6202158;28;20430;-87
2022/08/23 02:39:14;;;;;;;5.95;2.63;;;;;;;18.73;91.66;100621.34;6216241;28;20085;-87
2022/08/23 02:42:16;;;;;;;6.05;2.70;;;;;;;18.72;92.13;100622.31;6215131;28;20041;-87
2022/08/23 02:45:18;;;;;;;5.47;2.70;;;;;;;18.69;90.20;100633.16;6202657;28;20053;-87
2022/08/23 02:48:21;;;;;;;5.32;2.75;;;;;;;18.68;91.52;100634.16;6219610;28;20508;-87
2022/08/23 02:51:34;;;;;;;3.67;2.33;;;;;;;18.66;91.31;100630.06;6215797;28;20051;-87
2022/08/23 02:54:36;;;;;;;4.93;2.65;;;;;;;18.62;91.69;100626.94;6219672;28;20057;-87
2022/08/23 02:57:38;;;;;;;4.93;2.53;;;;;;;18.59;90.99;100632.53;6236070;28;20049;-87
2022/08/23 03:00:49;;;;;;;4.18;2.30;;;;;;;18.56;89.80;100629.44;6220686;28;20046;-87
2022/08/23 03:03:52;;;;;;;3.38;2.50;;;;;;;18.51;91.48;100629.97;6211999;28;20037;-87
2022/08/23 03:06:54;;;;;;;3.90;2.40;;;;;;;18.42;91.32;100623.94;6205992;28;20057;-87
2022/08/23 03:09:56;;;;;;;4.03;2.78;;;;;;;18.35;93.27;100619.53;6208305;28;20460;-87
2022/08/23 03:13:01;;;;;;;4.25;3.08;;;;;;;18.27;90.68;100631.69;6228903;28;20053;-87
2022/08/23 03:16:03;;;;;;;7.78;2.60;;;;;;;18.26;91.82;100627.44;6224640;28;20037;-87
2022/08/23 03:19:05;;;;;;;3.83;2.65;;;;;;;18.27;93.02;100631.69;6209533;28;20112;-87
2022/08/23 03:22:08;;;;;;;3.72;2.53;;;;;;;18.26;91.83;100637.91;6213588;28;20042;-87
2022/08/23 03:25:10;;;;;;;2.97;2.35;;;;;;;18.30;89.79;100628.72;6198706;28;20889;-87
2022/08/23 03:28:29;;;;;;;4.45;2.70;;;;;;;18.28;90.17;100635.09;6230680;28;20515;-87
2022/08/23 03:31:32;;;;;;;4.40;2.65;;;;;;;18.28;92.18;100635.94;6227731;28;20050;-87
2022/08/23 03:34:39;;;;;;;3.13;2.40;;;;;;;18.27;92.68;100639.53;6217453;28;20065;-87
2022/08/23 03:37:43;;;;;;;5.22;2.72;;;;;;;18.23;91.48;100640.03;6195976;28;20136;-86
2022/08/23 03:40:47;;;;;;;6.63;2.80;;;;;;;18.23;89.72;100640.84;6198868;28;20051;-86
2022/08/23 03:43:49;;;;;;;2.75;2.55;;;;;;;18.24;93.28;100652.16;6200016;28;20045;-87
2022/08/23 03:46:52;;;;;;;4.07;2.70;;;;;;;18.23;95.27;100651.34;6212489;28;20678;-87
2022/08/23 03:49:54;;;;;;;3.85;2.22;;;;;;;18.23;94.14;100653.94;6215770;28;20037;-86
2022/08/23 03:52:55;;;;;;;5.28;2.50;;;;;;;18.22;93.19;100644.47;6216663;28;20460;-87
2022/08/23 03:55:58;;;;;;;4.10;2.60;;;;;;;18.23;94.50;100658.38;6235895;28;20094;-87
2022/08/23 03:59:04;;;;;;;5.25;2.58;;;;;;;18.23;95.86;100653.94;6210484;28;20080;-87
2022/08/23 04:02:07;;;;;;;3.58;2.60;;;;;;;18.22;93.52;100652.31;6207554;28;20038;-87
2022/08/23 04:05:09;;;;;;;2.97;2.65;;;;;;;18.24;91.35;100654.78;6216983;28;20061;-87
2022/08/23 04:08:33;;;;;;;3.83;2.47;;;;;;;18.24;93.83;100655.59;6220275;28;20077;-87
2022/08/23 04:11:38;;;;;;;5.10;2.80;;;;;;;18.24;90.71;100655.59;6218694;28;20038;-87
2022/08/23 04:14:40;;;;;;;5.13;2.58;;;;;;;18.26;89.29;100656.25;6223916;28;20057;-87
2022/08/23 04:17:42;;;;;;;4.45;2.78;;;;;;;18.25;90.50;100657.22;6185187;28;20050;-87
2022/08/23 04:20:44;;;;;;;5.03;3.45;;;;;;;18.25;93.63;100661.66;6207157;28;20073;-87
2022/08/23 04:23:46;;;;;;;7.38;3.03;;;;;;;18.22;93.72;100675.91;6209579;28;20045;-87
2022/08/23 04:26:48;;;;;;;3.60;2.67;;;;;;;18.22;93.78;100675.91;6213921;28;20038;-87
2022/08/23 04:29:51;;;;;;;4.38;2.90;;;;;;;18.21;93.04;100682.16;6211123;28;20046;-87
2022/08/23 04:32:53;;;;;;;5.35;3.08;;;;;;;18.21;93.45;100682.16;6226253;28;20052;-87
2022/08/23 04:35:58;;;;;;;4.93;3.10;;;;;;;18.20;94.34;100680.50;6204911;28;20046;-87
2022/08/23 04:39:00;;;;;;;4.65;2.92;;;;;;;18.23;93.99;100688.00;6199012;28;20046;-87
2022/08/23 04:42:17;;;;;;;4.25;2.92;;;;;;;18.24;93.82;100689.66;6208215;28;20057;-87
2022/08/23 04:45:20;;;;;;;3.47;2.80;;;;;;;18.29;96.48;100692.59;6218718;28;20535;-84
2022/08/23 04:48:25;;;;;;;5.35;2.97;;;;;;;18.32;96.80;100693.25;6217966;28;20054;-86
2022/08/23 04:51:28;;;;;;;4.22;2.70;;;;;;;18.33;94.81;100693.06;6193577;28;20045;-85
2022/08/23 04:54:30;;;;;;;7.30;3.20;;;;;;;18.38;90.80;100698.63;6203097;28;20098;-86
2022/08/23 04:57:56;;;;;;;5.28;3.13;;;;;;;18.41;94.54;100700.94;6204945;28;20053;-85
2022/08/23 05:01:06;;;;;;;3.83;2.75;;;;;;;18.45;93.63;100696.97;6214929;28;20538;-86
2022/08/23 05:04:08;;;;;;;5.95;2.47;;;;;;;18.49;92.19;100706.16;6196738;28;20483;-85
2022/08/23 05:07:14;;;;;;;6.60;2.67;;;;;;;18.52;92.70;100702.38;6196998;28;20404;-85
2022/08/23 05:10:16;;;;;;;3.15;2.70;;;;;;;18.58;92.73;100706.91;6201247;28;20161;-85
2022/08/23 05:13:22;;;;;;;3.22;2.80;;;;;;;18.64;88.08;100705.44;6201686;28;20038;-86
2022/08/23 05:16:24;;;;;;;3.65;2.67;;;;;;;18.70;87.97;100704.75;6204391;28;20053;-85
2022/08/23 05:19:34;;;;;;;4.97;2.95;;;;;;;18.72;88.32;100706.22;6209493;28;20108;-86
2022/08/23 05:22:41;;;;;;;5.75;2.90;;;;;;;18.73;87.78;100717.53;6206276;28;20531;-86
2022/08/23 05:26:01;;;;;;;4.82;2.80;;;;;;;18.73;89.55;100723.63;6202969;28;20054;-87
2022/08/23 05:29:09;;;;;;;5.50;3.22;;;;;;;18.72;88.23;100729.81;6204147;28;21235;-87
2022/08/23 05:32:17;;;;;;;5.68;3.38;;;;;;;18.74;87.57;100719.19;6220773;28;20054;-87
2022/08/23 05:35:19;;;;;;;7.85;3.20;;;;;;;18.80;88.40;100729.00;6208434;28;20232;-87
2022/08/23 05:38:22;;;;;;;4.50;2.95;;;;;;;18.88;87.27;100729.00;6237257;28;20416;-87
2022/08/23 05:41:26;;;;;;;6.55;3.22;;;;;;;18.92;85.47;100727.66;6222490;28;20103;-86
2022/08/23 05:44:43;;;;;;;5.38;2.88;;;;;;;18.99;86.87;100727.78;6219193;28;20072;-87
2022/08/23 05:47:45;;;;;;;5.35;3.10;;;;;;;19.05;84.83;100726.28;6213392;28;20038;-87
2022/08/23 05:51:18;;;;;;;5.30;3.13;;;;;;;19.12;84.24;100732.47;6211289;28;20225;-86
2022/08/23 05:54:20;;;;;;;4.53;2.93;;;;;;;19.19;86.85;100733.44;6210368;28;20132;-87
2022/08/23 05:57:37;;;;;;;4.75;2.92;;;;;;;19.27;86.43;100738.63;6214745;28;20526;-87
2022/08/23 06:00:39;;;;;;;4.80;2.70;;;;;;;19.34;85.75;100734.31;6209439;28;20385;-87
2022/08/23 06:03:43;;;;;;;3.88;2.92;;;;;;;19.44;87.66;100735.91;6208896;28;20057;-87
2022/08/23 06:06:45;;;;;;;8.38;3.00;;;;;;;19.52;85.60;100738.47;6204450;28;20154;-87
2022/08/23 06:09:47;;;;;;;6.43;2.78;;;;;;;19.61;86.28;100744.50;6221925;28;20053;-87
2022/08/23 06:12:49;;;;;;;8.38;3.17;;;;;;;19.66;86.13;100745.59;6215103;28;20050;-87
2022/08/23 06:15:50;;;;;;;5.93;3.15;;;;;;;19.74;84.91;100753.44;6203914;28;20492;-87
2022/08/23 06:18:54;;;;;;;4.63;3.75;;;;;;;19.86;85.85;100745.97;6200359;28;20042;-87
2022/08/23 06:22:17;;;;;;;6.70;2.90;;;;;;;20.00;84.21;100752.28;6147191;28;20089;-87
2022/08/23 06:25:20;;;;;;;5.25;3.47;;;;;;;20.13;81.71;100752.47;6137297;28;20375;-87
2022/08/23 06:28:30;;;;;;;3.28;2.67;;;;;;;20.30;82.24;100753.16;6134680;28;20047;-87
2022/08/23 06:31:51;;;;;;;4.50;2.70;;;;;;;20.51;79.95;100754.25;6144603;28;20051;-86
2022/08/23 06:35:07;;;;;;;5.93;3.05;;;;;;;20.71;78.22;100755.38;6150225;28;20057;-86
2022/08/23 06:38:53;;;;;;;4.25;3.00;;;;;;;20.91;77.23;100757.44;6121492;29;20446;-86
2022/08/23 06:42:18;;;;;;;6.88;3.22;;;;;;;20.99;76.00;100757.34;6114563;29;20099;-86
2022/08/23 06:45:42;;;;;;;5.18;3.00;;;;;;;21.01;74.40;100756.16;6112844;28;20047;-86
2022/08/23 06:48:51;;;;;;;3.22;2.65;;;;;;;21.06;74.51;100753.78;6096918;29;20086;-87
2022/08/23 06:51:58;;;;;;;4.45;2.88;;;;;;;21.17;73.17;100752.50;6115475;29;20047;-86
2022/08/23 06:55:10;;;;;;;4.70;2.72;;;;;;;21.29;72.82;100758.09;6111174;29;20650;-86
2022/08/23 06:58:34;;;;;;;2.92;2.63;;;;;;;21.39;71.90;100758.66;6116380;28;20268;-86
2022/08/23 07:01:56;;;;;;;4.82;2.90;;;;;;;21.49;71.22;100761.81;6142564;28;20047;-86
2022/08/23 07:05:07;;;;;;;3.55;2.67;;;;;;;21.53;71.54;100751.69;6137716;28;20134;-87
2022/08/23 07:08:12;;;;;;;5.45;2.47;;;;;;;21.55;70.77;100754.16;6141804;28;20074;-86
2022/08/23 07:11:14;;;;;;;3.78;2.58;;;;;;;21.59;70.12;100755.38;6135771;28;20042;-87
2022/08/23 07:14:19;;;;;;;5.25;2.63;;;;;;;21.67;70.16;100750.81;6143963;28;20039;-86
2022/08/23 07:17:21;;;;;;;5.63;2.63;;;;;;;21.76;69.49;100743.59;6065141;29;20052;-87
2022/08/23 07:20:23;;;;;;;7.72;2.80;;;;;;;21.85;69.22;100754.81;6118008;29;20600;-87
2022/08/23 07:23:26;;;;;;;2.58;2.22;;;;;;;21.91;67.79;100757.53;6137110;28;20093;-87
2022/08/23 07:26:30;;;;;;;4.38;2.40;;;;;;;22.02;66.80;100769.38;6120703;28;20509;-87
2022/08/23 07:29:32;;;;;;;3.33;2.30;;;;;;;;;;6119593;28;20055;-87
2022/08/23 07:32:34;;;;;;;3.97;2.13;;;;;;;22.29;64.59;100766.97;6120067;28;20146;-87
2022/08/23 07:35:53;;;;;;;4.13;2.42;;;;;;;22.43;64.60;100770.50;6186266;28;20049;-87
2022/08/23 07:38:57;;;;;;;3.03;2.30;;;;;;;22.59;62.38;100780.75;6211989;28;20539;-87
2022/08/23 07:42:03;;;;;;;6.70;2.20;;;;;;;22.68;62.30;100786.69;6203890;28;20301;-87
2022/08/23 07:45:25;;;;;;;3.17;2.03;;;;;;;22.76;61.94;100789.19;6217389;28;20050;-87
2022/08/23 07:48:32;;;;;;;3.17;2.20;;;;;;;22.87;62.50;100795.72;6205426;28;20536;-87
2022/08/23 07:51:57;;;;;;;4.65;2.22;;;;;;;22.92;62.38;100799.41;6216001;28;20037;-87
2022/08/23 07:55:00;;;;;;;5.18;2.10;;;;;;;22.94;62.09;100805.31;6193845;28;20512;-87
2022/08/23 07:58:23;;;;;;;5.20;2.25;;;;;;;22.92;61.78;100802.03;6197905;28;20328;-87
2022/08/23 08:01:51;;;;;;;4.80;2.22;;;;;;;22.80;63.02;100799.13;6200068;28;20100;-87
2022/08/23 08:04:53;;;;;;;3.67;2.13;;;;;;;22.58;62.04;100803.69;6227674;28;20357;-87
2022/08/23 08:07:55;;;;;;;4.10;2.20;;;;;;;22.30;65.13;100800.25;6216715;28;20690;-87
2022/08/23 08:10:57;;;;;;;2.25;1.88;;;;;;;21.99;66.23;100801.41;6196825;28;20165;-87
2022/08/23 08:14:03;;;;;;;2.50;2.30;;;;;;;21.72;67.56;100795.88;6214966;28;20050;-87
2022/08/23 08:17:05;;;;;;;2.92;2.25;;;;;;;21.59;68.27;100795.75;6213702;28;20060;-87
2022/08/23 08:20:29;;;;;;;4.43;2.33;;;;;;;21.58;68.14;100796.72;6190495;28;20054;-87
2022/08/23 08:23:31;;;;;;;5.18;2.25;;;;;;;21.64;68.04;100788.09;6205327;28;20053;-87
2022/08/23 08:26:52;;;;;;;5.07;2.28;;;;;;;21.73;66.79;100792.22;6207779;28;20050;-87
2022/08/23 08:29:54;;;;;;;3.97;2.38;;;;;;;21.85;65.82;100791.72;6204178;28;20045;-87
2022/08/23 08:32:56;;;;;;;3.28;2.33;;;;;;;21.96;65.67;100798.31;6185984;28;20046;-87
2022/08/23 08:35:59;;;;;;;3.40;2.38;;;;;;;22.05;64.94;100784.00;6200266;28;20062;-88
2022/08/23 08:39:09;;;;;;;5.13;2.20;;;;;;;22.12;64.38;100784.88;6203858;28;20598;-87
2022/08/23 08:42:11;;;;;;;4.00;2.00;;;;;;;22.24;62.85;100782.56;6203399;28;20053;-87
2022/08/23 08:45:34;;;;;;;5.00;3.65;;;;;;;22.33;62.47;100786.66;6185939;28;20140;-87
2022/08/23 08:48:42;;;;;;;5.10;2.17;;;;;;;22.40;61.75;100779.63;6199034;28;20049;-87
2022/08/23 08:51:54;;;;;;;2.60;2.15;;;;;;;22.52;62.00;100774.63;6189579;28;20038;-87
2022/08/23 08:55:12;;;;;;;5.30;2.20;;;;;;;22.58;60.94;100779.13;6185445;28;20214;-87
2022/08/23 08:58:25;;;;;;;4.88;2.50;;;;;;;22.73;60.83;100781.63;6207793;28;20050;-87
2022/08/23 09:01:30;;;;;;;3.17;2.05;;;;;;;22.84;60.33;100786.38;6204559;28;20091;-87
2022/08/23 09:04:33;;;;;;;3.72;2.17;;;;;;;22.98;58.86;100785.47;6205624;28;20053;-87
2022/08/23 09:07:44;;;;;;;3.42;2.17;;;;;;;23.07;57.68;100780.00;6227114;28;20513;-87
2022/08/23 09:11:33;;;;;;;3.42;2.33;;;;;;;23.17;59.36;100794.47;6239025;28;20052;-87
2022/08/23 09:14:46;;;;;;;2.97;2.25;;;;;;;23.27;59.78;100780.88;6161829;28;20097;-87
2022/08/23 09:17:54;;;;;;;2.35;2.08;;;;;;;23.34;58.89;100784.38;6169841;28;20062;-87
2022/08/23 09:21:00;;;;;;;4.18;2.28;;;;;;;23.36;59.94;100792.91;6126924;28;20050;-87
2022/08/23 09:24:03;;;;;;;8.93;2.92;;;;;;;23.46;58.59;100783.81;6129924;28;20679;-87
2022/08/23 09:27:22;;;;;;;5.03;2.60;;;;;;;23.56;55.50;100792.97;6148629;28;20546;-87
2022/08/23 09:30:45;;;;;;;4.38;2.22;;;;;;;23.74;52.52;100797.69;6137860;28;20042;-87
2022/08/23 09:33:48;;;;;;;2.53;1.67;;;;;;;23.83;52.49;100793.84;6138744;28;20504;-87
2022/08/23 09:37:15;;;;;;;3.72;1.90;;;;;;;23.90;52.03;100790.38;6148554;28;20109;-87
2022/08/23 09:40:37;;;;;;;3.83;1.60;;;;;;;23.95;51.62;100791.44;6164004;28;20345;-87
2022/08/23 09:43:47;;;;;;;3.75;1.70;;;;;;;23.99;50.63;100791.81;6163611;28;20168;-87
2022/08/23 09:47:04;;;;;;;3.88;1.88;;;;;;;24.06;50.77;100776.78;6143829;28;20430;-87
2022/08/23 09:50:23;;;;;;;2.78;1.40;;;;;;;24.15;48.43;100782.66;6156587;28;20052;-88
2022/08/23 09:53:26;;;;;;;2.55;1.40;;;;;;;24.23;47.79;100779.81;6224467;28;20038;-87
2022/08/23 09:56:32;;;;;;;3.53;1.60;;;;;;;24.34;46.24;100779.19;6206696;28;20499;-88
2022/08/23 09:59:50;;;;;;;3.05;1.45;;;;;;;24.46;45.56;100779.41;6198632;28;20098;-91
2022/08/23 10:03:25;;;;;;;1.65;1.42;;;;;;;24.54;45.89;100770.44;6225221;28;20061;-86
2022/08/23 10:06:33;;;;;;;2.67;1.50;;;;;;;24.63;45.96;100771.84;6206913;28;20478;-87
2022/08/23 10:09:39;;;;;;;1.40;1.30;;;;;;;24.76;45.82;100777.09;6207448;28;20049;-87
2022/08/23 10:12:42;;;;;;;2.80;1.17;;;;;;;24.96;45.70;100766.41;6206074;28;20771;-87
2022/08/23 10:16:04;;;;;;;2.47;1.58;;;;;;;25.01;45.84;100763.13;6213275;28;20050;-87
2022/08/23 10:19:34;;;;;;;2.15;1.55;;;;;;;25.11;44.92;100761.66;6214031;28;20054;-87
2022/08/23 10:22:44;;;;;;;3.67;1.60;;;;;;;25.27;44.26;100759.59;6207847;28;20762;-87
2022/08/23 10:26:18;;;;;;;2.40;1.25;;;;;;;25.41;44.21;100758.47;6231498;28;20084;-88
2022/08/23 10:29:47;;;;;;;7.50;1.63;;;;;;;25.50;44.15;100764.34;6205490;28;20053;-87
2022/08/23 10:33:12;;;;;;;2.78;1.90;;;;;;;25.55;43.97;100760.00;6215278;28;20132;-88
2022/08/23 10:36:26;;;;;;;1.45;1.20;;;;;;;25.60;43.35;100755.91;6213118;28;20079;-88
2022/08/23 10:39:30;;;;;;;2.25;1.25;;;;;;;25.63;43.59;100766.09;6225204;28;20084;-88
2022/08/23 10:42:54;;;;;;;2.42;1.33;;;;;;;25.76;42.60;100763.31;6209414;28;20049;-88
2022/08/23 10:46:00;;;;;;;2.40;1.25;;;;;;;25.90;42.36;100748.97;6219870;28;20049;-89
2022/08/23 10:49:14;;;;;;;1.98;1.30;;;;;;;26.05;42.49;100750.47;6198751;28;20077;-89
2022/08/23 10:52:29;;;;;;;4.43;1.00;;;;;;;26.18;41.36;100753.00;6201863;28;20617;-90
2022/08/23 10:55:53;;;;;;;3.67;1.30;;;;;;;26.26;41.89;100750.09;6209676;28;20044;-90
2022/08/23 10:59:03;;;;;;;2.15;1.00;;;;;;;26.32;40.65;100753.69;6221386;28;20421;-89
2022/08/23 11:02:23;;;;;;;2.63;1.20;;;;;;;26.39;41.26;100752.59;6201695;28;20534;-89
2022/08/23 11:05:39;;;;;;;2.50;0.88;;;;;;;26.48;42.28;100753.09;6227192;28;20050;-89
2022/08/23 11:08:59;;;;;;;1.48;1.00;;;;;;;26.58;40.60;100755.28;6214232;28;20034;-89
2022/08/23 11:12:19;;;;;;;3.80;1.30;;;;;;;26.75;40.91;100745.69;6222560;28;20141;-90
2022/08/23 11:15:38;;;;;;;1.20;1.05;;;;;;;26.92;41.09;100737.91;6221766;28;20504;-89
2022/08/23 11:18:49;;;;;;;4.97;1.20;;;;;;;27.02;39.85;100742.69;6204837;28;20423;-90
2022/08/23 11:22:17;;;;;;;1.25;0.95;;;;;;;27.08;39.95;100741.81;6192878;28;20062;-90
2022/08/23 11:25:21;;;;;;;3.33;0.80;;;;;;;27.14;40.41;100732.91;6215182;28;20398;-89
2022/08/23 11:28:43;;;;;;;1.67;0.77;;;;;;;27.21;39.49;100735.53;6218712;28;20134;-90
2022/08/23 11:32:02;;;;;;;1.17;1.00;;;;;;;27.28;39.46;100734.41;6201595;28;20120;-90
2022/08/23 11:35:04;;;;;;;1.52;0.93;;;;;;;27.39;42.67;100732.78;6194870;28;20598;-91
2022/08/23 11:38:07;;;;;;;1.33;0.80;;;;;;;27.41;40.14;100741.34;6208907;28;20049;-89
2022/08/23 11:41:23;;;;;;;1.95;0.90;;;;;;;27.47;39.43;100732.47;6217900;28;20061;-91
2022/08/23 11:44:45;;;;;;;1.02;0.80;;;;;;;27.58;40.45;100727.41;6214317;28;20077;-90
2022/08/23 11:48:02;;;;;;;2.17;1.70;;;;;;;27.76;39.47;100731.81;6195006;28;20243;-90
2022/08/23 11:51:10;;;;;;;1.85;0.80;;;;;;;27.85;38.49;100733.94;6200259;28;20176;-89
2022/08/23 11:54:50;;;;;;;1.27;0.80;;;;;;;27.99;38.99;100729.19;6203194;28;20037;-90
2022/08/23 11:58:44;;;;;;;7.18;1.10;;;;;;;28.10;38.49;100725.72;6199798;28;20112;-90
2022/08/23 12:01:46;;;;;;;6.03;1.00;;;;;;;28.21;38.61;100729.41;6193915;28;20053;-89
2022/08/23 12:04:52;;;;;;;2.33;0.80;;;;;;;28.30;37.85;100721.91;6213333;28;20116;-89
2022/08/23 12:08:01;;;;;;;2.20;0.90;;;;;;;28.47;39.19;100717.50;6217640;28;20053;-90
2022/08/23 12:11:07;;;;;;;3.03;1.00;;;;;;;28.67;37.94;100724.25;6193670;28;20117;-90
2022/08/23 12:14:35;;;;;;;1.85;0.93;;;;;;;28.85;37.11;100724.09;6214849;28;21544;-89
2022/08/23 12:18:07;;;;;;;2.58;1.23;;;;;;;28.96;37.03;100723.22;6200963;28;20049;-89
2022/08/23 12:21:30;;;;;;;2.08;0.90;;;;;;;29.20;38.44;100715.16;6203482;28;20042;-89
2022/08/23 12:24:46;;;;;;;1.63;0.93;;;;;;;29.33;36.91;100712.16;6196782;28;20053;-89
2022/08/23 12:27:55;;;;;;;2.33;1.02;;;;;;;29.47;36.43;100715.34;6202220;28;20042;-88
2022/08/23 12:31:12;;;;;;;1.70;1.13;;;;;;;29.61;35.48;100708.63;6202099;28;20042;-88
2022/08/23 12:34:32;;;;;;;3.22;1.10;;;;;;;29.78;35.35;100713.16;6198546;28;20526;-88
2022/08/23 12:38:16;;;;;;;2.97;1.00;;;;;;;29.96;35.90;100712.91;6213306;28;20135;-88
2022/08/23 12:41:57;;;;;;;1.85;0.85;;;;;;;30.21;35.39;100714.28;6196989;28;20060;-87
2022/08/23 12:45:01;;;;;;;1.88;1.00;;;;;;;30.34;36.97;100711.31;6210490;28;20049;-87
2022/08/23 12:48:07;;;;;;;1.48;0.90;;;;;;;30.52;36.28;100712.03;6205527;28;20039;-87
2022/08/23 12:51:11;;;;;;;1.17;1.00;;;;;;;30.60;34.25;100704.38;6216293;28;20038;-88
2022/08/23 12:54:18;;;;;;;2.53;0.98;;;;;;;30.68;34.91;100716.50;6215782;28;20050;-88
2022/08/23 12:57:38;;;;;;;1.20;1.10;;;;;;;30.79;35.09;100710.22;6204823;28;20061;-88
2022/08/23 13:00:51;;;;;;;4.00;1.00;;;;;;;30.92;35.79;100713.56;6215641;28;20049;-88
2022/08/23 13:04:13;;;;;;;1.25;1.10;;;;;;;31.05;35.63;100721.19;6204892;28;20193;-87
2022/08/23 13:07:22;;;;;;;2.95;0.90;;;;;;;31.21;34.06;100712.25;6208782;28;20049;-88
2022/08/23 13:10:25;;;;;;;1.30;1.10;;;;;;;31.42;34.14;100696.41;6200003;28;20057;-89
2022/08/23 13:13:27;;;;;;;3.22;1.27;;;;;;;31.65;35.36;100700.56;6200689;28;20034;-89
2022/08/23 13:16:43;;;;;;;2.55;1.17;;;;;;;31.84;33.57;100693.72;6208401;28;20076;-89
2022/08/23 13:19:48;;;;;;;3.08;1.10;;;;;;;31.95;34.51;100695.44;6202889;28;20417;-88
2022/08/23 13:23:02;;;;;;;6.00;1.80;;;;;;;32.09;34.42;100697.66;6210162;28;20420;-88
2022/08/23 13:26:23;;;;;;;2.67;1.30;;;;;;;32.21;33.40;100692.88;6205331;28;20526;-89
2022/08/23 13:29:25;;;;;;;3.90;1.10;;;;;;;32.33;32.15;100685.44;6215938;28;20051;-89
2022/08/23 13:32:35;;;;;;;2.38;1.33;;;;;;;32.37;34.18;100689.22;6206817;28;20412;-89
2022/08/23 13:35:45;;;;;;;2.53;1.20;;;;;;;32.46;33.18;100691.38;6204025;28;20157;-89
2022/08/23 13:38:49;;;;;;;1.55;1.10;;;;;;;32.42;34.69;100682.22;6198429;28;20092;-89
2022/08/23 13:41:51;;;;;;;3.72;1.45;;;;;;;32.23;33.17;100685.41;6198748;28;20069;-90
2022/08/23 13:44:53;;;;;;;2.42;1.38;;;;;;;32.12;34.70;100683.72;6208206;28;20049;-89
2022/08/23 13:48:19;;;;;;;1.20;1.10;;;;;;;32.22;35.23;100685.66;6207258;28;20464;-89
2022/08/23 13:51:32;;;;;;;1.90;1.27;;;;;;;32.21;34.42;100676.00;6218199;28;20515;-89
2022/08/23 13:54:38;;;;;;;3.42;1.15;;;;;;;32.25;34.83;100669.88;6209405;28;20050;-90
2022/08/23 13:57:41;;;;;;;2.70;1.10;;;;;;;32.37;33.46;100675.81;6227070;28;20052;-89
2022/08/23 14:00:46;;;;;;;3.25;1.13;;;;;;;32.40;34.51;100680.63;6204720;28;20371;-90
2022/08/23 14:03:56;;;;;;;1.40;1.17;;;;;;;32.53;33.05;100678.56;6216923;28;20041;-89
2022/08/23 14:06:59;;;;;;;5.20;1.25;;;;;;;32.63;32.77;100672.44;6235046;28;20044;-90
2022/08/23 14:10:01;;;;;;;2.85;1.10;;;;;;;32.81;32.37;100674.59;6226416;28;20495;-90
2022/08/23 14:13:03;;;;;;;2.35;1.20;;;;;;;32.94;32.12;100673.25;6202106;28;20408;-90
2022/08/23 14:16:07;;;;;;;1.70;1.23;;;;;;;33.05;33.73;100685.66;6207894;28;20054;-90
2022/08/23 14:19:30;;;;;;;1.55;1.15;;;;;;;33.14;31.75;100692.06;6213184;28;20522;-90
2022/08/23 14:22:52;;;;;;;1.85;1.30;;;;;;;33.12;32.02;100690.72;6212592;28;20470;-89
2022/08/23 14:25:55;;;;;;;3.55;1.48;;;;;;;33.14;32.73;100678.66;6216913;28;20041;-90
2022/08/23 14:28:57;;;;;;;2.60;1.17;;;;;;;33.16;31.90;100673.03;6206002;28;20527;-90
2022/08/23 14:32:00;;;;;;;2.28;1.17;;;;;;;33.11;31.83;100673.84;6224731;28;20045;-89
2022/08/23 14:35:02;;;;;;;1.92;1.20;;;;;;;33.22;32.35;100677.34;6229373;28;20041;-89
2022/08/23 14:38:04;;;;;;;2.53;1.10;;;;;;;33.29;32.82;100675.16;6216356;28;20152;-89
2022/08/23 14:41:11;;;;;;;3.22;1.20;;;;;;;33.40;32.20;100673.31;6208173;28;20046;-90
2022/08/23 14:44:15;;;;;;;1.40;1.27;;;;;;;33.62;32.68;100665.78;6209145;28;20042;-90
2022/08/23 14:47:17;;;;;;;1.45;1.25;;;;;;;33.76;32.09;100662.50;6218188;28;20041;-90
2022/08/23 14:50:19;;;;;;;4.70;1.30;;;;;;;33.75;31.94;100661.72;6208075;28;20041;-90
2022/08/23 14:53:26;;;;;;;4.95;1.42;;;;;;;33.66;31.64;100663.34;6212083;28;20124;-89